sensor_id;sensor_type;location;lat;lon;timestamp;temperature;humidity
14401;DHT22;7285;50.894;5.462;2022-09-09T00:01:58;15.30;1.00
14401;DHT22;7285;50.894;5.462;2022-09-09T00:04:28;15.30;28.30
14401;DHT22;7285;50.894;5.462;2022-09-09T00:07:03;15.30;86.20
14401;DHT22;7285;50.894;5.462;2022-09-09T00:09:35;15.30;1.00
14401;DHT22;7285;50.894;5.462;2022-09-09T00:12:11;15.40;1.00
14401;DHT22;7285;50.894;5.462;2022-09-09T00:14:45;15.40;1.00
14401;DHT22;7285;50.894;5.462;2022-09-09T00:17:22;15.40;1.00
14401;DHT22;7285;50.894;5.462;2022-09-09T00:19:58;15.30;1.00
14401;DHT22;7285;50.894;5.462;2022-09-09T00:22:30;15.30;1.00
14401;DHT22;7285;50.894;5.462;2022-09-09T00:25:08;15.30;1.00
14401;DHT22;7285;50.894;5.462;2022-09-09T00:27:40;15.20;1.00
14401;DHT22;7285;50.894;5.462;2022-09-09T00:30:15;15.20;1.00
14401;DHT22;7285;50.894;5.462;2022-09-09T00:32:45;15.20;1.00
14401;DHT22;7285;50.894;5.462;2022-09-09T00:35:18;15.10;1.00
14401;DHT22;7285;50.894;5.462;2022-09-09T00:37:48;15.10;1.00
14401;DHT22;7285;50.894;5.462;2022-09-09T00:40:24;15.10;1.00
14401;DHT22;7285;50.894;5.462;2022-09-09T00:42:59;15.10;49.20
14401;DHT22;7285;50.894;5.462;2022-09-09T00:45:50;15.00;59.30
14401;DHT22;7285;50.894;5.462;2022-09-09T00:48:20;14.90;99.90
14401;DHT22;7285;50.894;5.462;2022-09-09T00:50:55;14.90;99.90
14401;DHT22;7285;50.894;5.462;2022-09-09T00:53:32;14.80;99.90
14401;DHT22;7285;50.894;5.462;2022-09-09T00:56:08;14.90;99.90
14401;DHT22;7285;50.894;5.462;2022-09-09T00:58:36;14.80;1.00
14401;DHT22;7285;50.894;5.462;2022-09-09T01:01:05;14.70;1.00
14401;DHT22;7285;50.894;5.462;2022-09-09T01:03:38;14.70;1.00
14401;DHT22;7285;50.894;5.462;2022-09-09T01:06:15;14.70;1.00
14401;DHT22;7285;50.894;5.462;2022-09-09T01:08:57;14.70;1.00
14401;DHT22;7285;50.894;5.462;2022-09-09T01:11:33;14.70;19.60
14401;DHT22;7285;50.894;5.462;2022-09-09T01:14:11;14.70;99.90
14401;DHT22;7285;50.894;5.462;2022-09-09T01:16:40;14.70;99.90
14401;DHT22;7285;50.894;5.462;2022-09-09T01:19:12;14.60;99.90
14401;DHT22;7285;50.894;5.462;2022-09-09T01:21:55;14.70;1.00
14401;DHT22;7285;50.894;5.462;2022-09-09T01:24:29;14.60;1.00
14401;DHT22;7285;50.894;5.462;2022-09-09T01:27:05;14.60;1.00
14401;DHT22;7285;50.894;5.462;2022-09-09T01:29:33;14.60;1.00
14401;DHT22;7285;50.894;5.462;2022-09-09T01:32:01;14.60;1.00
14401;DHT22;7285;50.894;5.462;2022-09-09T01:34:33;14.60;1.00
14401;DHT22;7285;50.894;5.462;2022-09-09T01:37:02;14.60;1.00
14401;DHT22;7285;50.894;5.462;2022-09-09T01:39:32;14.50;76.20
14401;DHT22;7285;50.894;5.462;2022-09-09T01:42:00;14.60;99.90
14401;DHT22;7285;50.894;5.462;2022-09-09T01:44:29;14.60;1.00
14401;DHT22;7285;50.894;5.462;2022-09-09T01:46:57;14.60;1.00
14401;DHT22;7285;50.894;5.462;2022-09-09T01:49:24;14.70;1.00
14401;DHT22;7285;50.894;5.462;2022-09-09T01:51:53;14.70;1.00
14401;DHT22;7285;50.894;5.462;2022-09-09T01:54:21;14.70;1.00
14401;DHT22;7285;50.894;5.462;2022-09-09T01:56:57;14.70;1.00
14401;DHT22;7285;50.894;5.462;2022-09-09T01:59:45;14.80;1.00
14401;DHT22;7285;50.894;5.462;2022-09-09T02:02:18;14.80;1.00
14401;DHT22;7285;50.894;5.462;2022-09-09T02:04:47;14.80;1.00
14401;DHT22;7285;50.894;5.462;2022-09-09T02:07:25;14.90;1.00
14401;DHT22;7285;50.894;5.462;2022-09-09T02:10:02;14.90;1.00
14401;DHT22;7285;50.894;5.462;2022-09-09T02:12:32;14.90;1.00
14401;DHT22;7285;50.894;5.462;2022-09-09T02:15:03;14.90;99.90
14401;DHT22;7285;50.894;5.462;2022-09-09T02:17:35;15.00;99.90
14401;DHT22;7285;50.894;5.462;2022-09-09T02:20:06;15.00;99.90
14401;DHT22;7285;50.894;5.462;2022-09-09T02:22:36;15.00;99.90
14401;DHT22;7285;50.894;5.462;2022-09-09T02:25:07;15.10;99.90
14401;DHT22;7285;50.894;5.462;2022-09-09T02:27:35;15.00;22.30
14401;DHT22;7285;50.894;5.462;2022-09-09T02:30:05;15.00;1.00
14401;DHT22;7285;50.894;5.462;2022-09-09T02:32:35;15.00;1.00
14401;DHT22;7285;50.894;5.462;2022-09-09T02:35:05;15.00;1.00
14401;DHT22;7285;50.894;5.462;2022-09-09T02:37:37;15.00;1.00
14401;DHT22;7285;50.894;5.462;2022-09-09T02:40:06;15.00;1.00
14401;DHT22;7285;50.894;5.462;2022-09-09T02:42:38;15.00;1.00
14401;DHT22;7285;50.894;5.462;2022-09-09T02:45:09;15.10;1.00
14401;DHT22;7285;50.894;5.462;2022-09-09T02:47:40;15.00;1.00
14401;DHT22;7285;50.894;5.462;2022-09-09T02:50:17;15.00;1.00
14401;DHT22;7285;50.894;5.462;2022-09-09T02:52:56;15.00;1.00
14401;DHT22;7285;50.894;5.462;2022-09-09T02:55:37;15.00;99.90
14401;DHT22;7285;50.894;5.462;2022-09-09T02:58:07;15.00;99.90
14401;DHT22;7285;50.894;5.462;2022-09-09T03:00:36;15.00;99.90
14401;DHT22;7285;50.894;5.462;2022-09-09T03:03:04;15.00;99.90
14401;DHT22;7285;50.894;5.462;2022-09-09T03:05:32;15.00;93.30
14401;DHT22;7285;50.894;5.462;2022-09-09T03:07:59;15.10;20.30
14401;DHT22;7285;50.894;5.462;2022-09-09T03:10:27;15.00;1.00
14401;DHT22;7285;50.894;5.462;2022-09-09T03:12:54;15.00;1.00
14401;DHT22;7285;50.894;5.462;2022-09-09T03:15:21;15.00;1.00
14401;DHT22;7285;50.894;5.462;2022-09-09T03:17:50;15.00;1.00
14401;DHT22;7285;50.894;5.462;2022-09-09T03:20:17;15.00;1.00
14401;DHT22;7285;50.894;5.462;2022-09-09T03:22:44;15.00;1.00
14401;DHT22;7285;50.894;5.462;2022-09-09T03:25:11;15.00;1.00
14401;DHT22;7285;50.894;5.462;2022-09-09T03:27:38;15.10;1.00
14401;DHT22;7285;50.894;5.462;2022-09-09T03:30:06;15.10;1.00
14401;DHT22;7285;50.894;5.462;2022-09-09T03:32:33;15.00;1.00
14401;DHT22;7285;50.894;5.462;2022-09-09T03:35:01;15.10;1.00
14401;DHT22;7285;50.894;5.462;2022-09-09T03:37:28;15.10;99.90
14401;DHT22;7285;50.894;5.462;2022-09-09T03:39:57;15.20;99.90
14401;DHT22;7285;50.894;5.462;2022-09-09T03:42:25;15.20;99.90
14401;DHT22;7285;50.894;5.462;2022-09-09T03:44:52;15.30;99.90
14401;DHT22;7285;50.894;5.462;2022-09-09T03:47:20;15.30;99.90
14401;DHT22;7285;50.894;5.462;2022-09-09T03:49:48;15.30;99.90
14401;DHT22;7285;50.894;5.462;2022-09-09T03:52:16;15.30;2.60
14401;DHT22;7285;50.894;5.462;2022-09-09T03:54:44;15.30;19.10
14401;DHT22;7285;50.894;5.462;2022-09-09T03:57:11;15.30;1.00
14401;DHT22;7285;50.894;5.462;2022-09-09T03:59:45;15.30;57.30
14401;DHT22;7285;50.894;5.462;2022-09-09T04:02:12;15.40;78.50
14401;DHT22;7285;50.894;5.462;2022-09-09T04:04:39;15.40;17.70
14401;DHT22;7285;50.894;5.462;2022-09-09T04:07:06;15.40;1.00
14401;DHT22;7285;50.894;5.462;2022-09-09T04:09:34;15.30;1.00
14401;DHT22;7285;50.894;5.462;2022-09-09T04:12:01;15.30;1.00
14401;DHT22;7285;50.894;5.462;2022-09-09T04:14:28;15.40;1.00
14401;DHT22;7285;50.894;5.462;2022-09-09T04:16:55;15.30;1.00
14401;DHT22;7285;50.894;5.462;2022-09-09T04:19:22;15.30;1.00
14401;DHT22;7285;50.894;5.462;2022-09-09T04:21:49;15.30;1.00
14401;DHT22;7285;50.894;5.462;2022-09-09T04:24:16;15.30;1.00
14401;DHT22;7285;50.894;5.462;2022-09-09T04:26:45;15.30;1.00
14401;DHT22;7285;50.894;5.462;2022-09-09T04:29:12;15.20;1.00
14401;DHT22;7285;50.894;5.462;2022-09-09T04:31:39;15.20;1.00
14401;DHT22;7285;50.894;5.462;2022-09-09T04:34:07;15.20;1.00
14401;DHT22;7285;50.894;5.462;2022-09-09T04:36:34;15.20;1.00
14401;DHT22;7285;50.894;5.462;2022-09-09T04:39:02;15.20;1.00
14401;DHT22;7285;50.894;5.462;2022-09-09T04:41:29;15.30;1.00
14401;DHT22;7285;50.894;5.462;2022-09-09T04:43:58;15.20;1.00
14401;DHT22;7285;50.894;5.462;2022-09-09T04:46:26;15.30;1.00
14401;DHT22;7285;50.894;5.462;2022-09-09T04:48:53;15.20;1.00
14401;DHT22;7285;50.894;5.462;2022-09-09T04:51:20;15.20;1.00
14401;DHT22;7285;50.894;5.462;2022-09-09T04:53:47;15.20;1.00
14401;DHT22;7285;50.894;5.462;2022-09-09T04:56:17;15.20;1.00
14401;DHT22;7285;50.894;5.462;2022-09-09T04:58:44;15.30;1.00
14401;DHT22;7285;50.894;5.462;2022-09-09T05:01:14;15.30;1.00
14401;DHT22;7285;50.894;5.462;2022-09-09T05:03:42;15.30;1.00
14401;DHT22;7285;50.894;5.462;2022-09-09T05:06:12;15.20;1.00
14401;DHT22;7285;50.894;5.462;2022-09-09T05:08:40;15.20;1.00
14401;DHT22;7285;50.894;5.462;2022-09-09T05:11:14;15.20;1.00
14401;DHT22;7285;50.894;5.462;2022-09-09T05:13:43;15.10;1.00
14401;DHT22;7285;50.894;5.462;2022-09-09T05:16:12;15.20;1.00
14401;DHT22;7285;50.894;5.462;2022-09-09T05:18:39;15.20;1.00
14401;DHT22;7285;50.894;5.462;2022-09-09T05:21:08;15.20;1.00
14401;DHT22;7285;50.894;5.462;2022-09-09T05:23:35;15.30;1.00
14401;DHT22;7285;50.894;5.462;2022-09-09T05:26:03;15.30;1.00
14401;DHT22;7285;50.894;5.462;2022-09-09T05:28:30;15.30;1.00
14401;DHT22;7285;50.894;5.462;2022-09-09T05:30:58;15.40;1.00
14401;DHT22;7285;50.894;5.462;2022-09-09T05:33:27;15.40;1.00
14401;DHT22;7285;50.894;5.462;2022-09-09T05:35:58;15.40;99.90
14401;DHT22;7285;50.894;5.462;2022-09-09T05:38:26;15.40;99.90
14401;DHT22;7285;50.894;5.462;2022-09-09T05:40:54;15.50;99.90
14401;DHT22;7285;50.894;5.462;2022-09-09T05:43:21;15.50;99.90
14401;DHT22;7285;50.894;5.462;2022-09-09T05:45:58;15.50;99.90
14401;DHT22;7285;50.894;5.462;2022-09-09T05:48:29;15.50;99.90
14401;DHT22;7285;50.894;5.462;2022-09-09T05:50:56;15.60;1.00
14401;DHT22;7285;50.894;5.462;2022-09-09T05:53:23;15.60;1.00
14401;DHT22;7285;50.894;5.462;2022-09-09T05:55:50;15.60;1.00
14401;DHT22;7285;50.894;5.462;2022-09-09T05:58:18;15.70;1.00
14401;DHT22;7285;50.894;5.462;2022-09-09T06:00:45;15.70;1.00
14401;DHT22;7285;50.894;5.462;2022-09-09T06:03:12;15.70;1.00
14401;DHT22;7285;50.894;5.462;2022-09-09T06:05:40;15.70;1.00
14401;DHT22;7285;50.894;5.462;2022-09-09T06:08:07;15.80;1.00
14401;DHT22;7285;50.894;5.462;2022-09-09T06:10:34;15.80;1.00
14401;DHT22;7285;50.894;5.462;2022-09-09T06:13:01;15.80;1.00
14401;DHT22;7285;50.894;5.462;2022-09-09T06:15:29;15.90;1.00
14401;DHT22;7285;50.894;5.462;2022-09-09T06:17:57;15.90;99.90
14401;DHT22;7285;50.894;5.462;2022-09-09T06:20:24;16.00;99.90
14401;DHT22;7285;50.894;5.462;2022-09-09T06:22:52;16.00;99.90
14401;DHT22;7285;50.894;5.462;2022-09-09T06:25:19;16.10;99.90
14401;DHT22;7285;50.894;5.462;2022-09-09T06:27:48;16.10;99.90
14401;DHT22;7285;50.894;5.462;2022-09-09T06:30:16;16.10;99.90
14401;DHT22;7285;50.894;5.462;2022-09-09T06:32:44;16.10;99.90
14401;DHT22;7285;50.894;5.462;2022-09-09T06:35:10;16.20;99.90
14401;DHT22;7285;50.894;5.462;2022-09-09T06:37:39;16.20;99.90
14401;DHT22;7285;50.894;5.462;2022-09-09T06:40:08;16.20;99.90
14401;DHT22;7285;50.894;5.462;2022-09-09T06:42:35;16.20;99.90
14401;DHT22;7285;50.894;5.462;2022-09-09T06:45:06;16.20;99.90
14401;DHT22;7285;50.894;5.462;2022-09-09T06:47:33;16.20;99.90
14401;DHT22;7285;50.894;5.462;2022-09-09T06:50:00;16.30;99.90
14401;DHT22;7285;50.894;5.462;2022-09-09T06:52:27;16.40;99.90
14401;DHT22;7285;50.894;5.462;2022-09-09T06:54:54;16.60;99.90
14401;DHT22;7285;50.894;5.462;2022-09-09T06:57:22;16.70;99.90
14401;DHT22;7285;50.894;5.462;2022-09-09T06:59:49;16.80;45.50
14401;DHT22;7285;50.894;5.462;2022-09-09T07:02:16;16.90;8.90
14401;DHT22;7285;50.894;5.462;2022-09-09T07:04:43;17.10;1.00
14401;DHT22;7285;50.894;5.462;2022-09-09T07:07:10;17.30;1.00
14401;DHT22;7285;50.894;5.462;2022-09-09T07:09:39;17.50;1.00
14401;DHT22;7285;50.894;5.462;2022-09-09T07:12:06;17.50;1.00
14401;DHT22;7285;50.894;5.462;2022-09-09T07:14:34;17.30;1.00
14401;DHT22;7285;50.894;5.462;2022-09-09T07:17:03;17.30;1.00
14401;DHT22;7285;50.894;5.462;2022-09-09T07:19:30;17.30;1.00
14401;DHT22;7285;50.894;5.462;2022-09-09T07:21:57;17.20;1.00
14401;DHT22;7285;50.894;5.462;2022-09-09T07:24:24;17.10;1.00
14401;DHT22;7285;50.894;5.462;2022-09-09T07:26:53;17.10;1.00
14401;DHT22;7285;50.894;5.462;2022-09-09T07:29:19;17.10;1.00
14401;DHT22;7285;50.894;5.462;2022-09-09T07:31:48;17.10;1.00
14401;DHT22;7285;50.894;5.462;2022-09-09T07:34:15;17.10;1.00
14401;DHT22;7285;50.894;5.462;2022-09-09T07:36:42;17.10;1.00
14401;DHT22;7285;50.894;5.462;2022-09-09T07:39:11;17.10;1.00
14401;DHT22;7285;50.894;5.462;2022-09-09T07:41:40;17.10;1.00
14401;DHT22;7285;50.894;5.462;2022-09-09T07:44:09;17.10;1.00
14401;DHT22;7285;50.894;5.462;2022-09-09T07:46:37;17.20;1.00
14401;DHT22;7285;50.894;5.462;2022-09-09T07:49:07;17.30;1.00
14401;DHT22;7285;50.894;5.462;2022-09-09T07:51:37;17.30;1.00
14401;DHT22;7285;50.894;5.462;2022-09-09T07:54:06;17.30;1.00
14401;DHT22;7285;50.894;5.462;2022-09-09T07:56:33;17.40;1.00
14401;DHT22;7285;50.894;5.462;2022-09-09T07:59:01;17.60;1.00
14401;DHT22;7285;50.894;5.462;2022-09-09T08:01:32;17.60;1.00
14401;DHT22;7285;50.894;5.462;2022-09-09T08:04:01;17.80;1.00
14401;DHT22;7285;50.894;5.462;2022-09-09T08:06:32;17.80;1.00
14401;DHT22;7285;50.894;5.462;2022-09-09T08:09:00;17.80;1.00
14401;DHT22;7285;50.894;5.462;2022-09-09T08:11:29;17.80;1.00
14401;DHT22;7285;50.894;5.462;2022-09-09T08:13:56;17.80;1.00
14401;DHT22;7285;50.894;5.462;2022-09-09T08:16:25;17.80;1.00
14401;DHT22;7285;50.894;5.462;2022-09-09T08:18:53;17.70;1.00
14401;DHT22;7285;50.894;5.462;2022-09-09T08:21:23;17.60;1.00
14401;DHT22;7285;50.894;5.462;2022-09-09T08:23:52;17.50;1.00
14401;DHT22;7285;50.894;5.462;2022-09-09T08:26:21;17.50;1.00
14401;DHT22;7285;50.894;5.462;2022-09-09T08:28:49;17.40;1.00
14401;DHT22;7285;50.894;5.462;2022-09-09T08:31:19;17.40;1.00
14401;DHT22;7285;50.894;5.462;2022-09-09T08:33:46;17.40;1.00
14401;DHT22;7285;50.894;5.462;2022-09-09T08:36:15;17.30;1.00
14401;DHT22;7285;50.894;5.462;2022-09-09T08:38:42;17.30;1.00
14401;DHT22;7285;50.894;5.462;2022-09-09T08:41:28;17.30;1.00
14401;DHT22;7285;50.894;5.462;2022-09-09T08:44:02;17.40;1.00
14401;DHT22;7285;50.894;5.462;2022-09-09T08:46:38;17.30;1.00
14401;DHT22;7285;50.894;5.462;2022-09-09T08:49:16;17.30;1.00
14401;DHT22;7285;50.894;5.462;2022-09-09T08:51:44;17.30;1.00
14401;DHT22;7285;50.894;5.462;2022-09-09T08:54:11;17.40;1.00
14401;DHT22;7285;50.894;5.462;2022-09-09T08:56:40;17.40;1.00
14401;DHT22;7285;50.894;5.462;2022-09-09T08:59:10;17.40;1.00
14401;DHT22;7285;50.894;5.462;2022-09-09T09:01:59;17.40;1.00
14401;DHT22;7285;50.894;5.462;2022-09-09T09:04:38;17.40;1.00
14401;DHT22;7285;50.894;5.462;2022-09-09T09:07:18;17.30;1.00
14401;DHT22;7285;50.894;5.462;2022-09-09T09:09:55;17.30;1.00
14401;DHT22;7285;50.894;5.462;2022-09-09T09:12:28;17.30;1.00
14401;DHT22;7285;50.894;5.462;2022-09-09T09:15:02;17.30;1.00
14401;DHT22;7285;50.894;5.462;2022-09-09T09:17:37;17.30;1.00
14401;DHT22;7285;50.894;5.462;2022-09-09T09:20:10;17.40;1.00
14401;DHT22;7285;50.894;5.462;2022-09-09T09:22:45;17.40;1.00
14401;DHT22;7285;50.894;5.462;2022-09-09T09:25:17;17.50;1.00
14401;DHT22;7285;50.894;5.462;2022-09-09T09:27:52;17.60;1.00
14401;DHT22;7285;50.894;5.462;2022-09-09T09:30:26;17.60;1.00
14401;DHT22;7285;50.894;5.462;2022-09-09T09:32:59;17.60;1.00
14401;DHT22;7285;50.894;5.462;2022-09-09T09:35:27;17.60;1.00
14401;DHT22;7285;50.894;5.462;2022-09-09T09:37:54;17.50;1.00
14401;DHT22;7285;50.894;5.462;2022-09-09T09:40:22;17.40;1.00
14401;DHT22;7285;50.894;5.462;2022-09-09T09:42:53;17.30;1.00
14401;DHT22;7285;50.894;5.462;2022-09-09T09:45:27;17.20;1.00
14401;DHT22;7285;50.894;5.462;2022-09-09T09:48:01;17.10;99.90
14401;DHT22;7285;50.894;5.462;2022-09-09T09:50:30;17.10;99.00
14401;DHT22;7285;50.894;5.462;2022-09-09T09:52:59;17.00;1.00
14401;DHT22;7285;50.894;5.462;2022-09-09T09:55:29;17.00;1.00
14401;DHT22;7285;50.894;5.462;2022-09-09T09:58:03;17.10;35.10
14401;DHT22;7285;50.894;5.462;2022-09-09T10:00:30;17.20;23.50
14401;DHT22;7285;50.894;5.462;2022-09-09T10:02:57;17.30;1.00
14401;DHT22;7285;50.894;5.462;2022-09-09T10:05:27;17.40;1.00
14401;DHT22;7285;50.894;5.462;2022-09-09T10:08:08;17.40;1.00
14401;DHT22;7285;50.894;5.462;2022-09-09T10:10:45;17.50;1.00
14401;DHT22;7285;50.894;5.462;2022-09-09T10:13:19;17.50;1.00
14401;DHT22;7285;50.894;5.462;2022-09-09T10:15:57;17.60;1.00
14401;DHT22;7285;50.894;5.462;2022-09-09T10:21:54;17.60;1.00
14401;DHT22;7285;50.894;5.462;2022-09-09T10:24:44;17.60;1.00
14401;DHT22;7285;50.894;5.462;2022-09-09T10:27:21;17.60;1.00
14401;DHT22;7285;50.894;5.462;2022-09-09T10:30:06;17.60;1.00
14401;DHT22;7285;50.894;5.462;2022-09-09T10:32:41;17.60;1.00
14401;DHT22;7285;50.894;5.462;2022-09-09T10:35:14;17.60;1.00
14401;DHT22;7285;50.894;5.462;2022-09-09T10:38:01;17.30;1.00
14401;DHT22;7285;50.894;5.462;2022-09-09T10:40:33;17.20;97.80
14401;DHT22;7285;50.894;5.462;2022-09-09T10:43:11;17.00;99.90
14401;DHT22;7285;50.894;5.462;2022-09-09T10:45:48;17.00;1.00
14401;DHT22;7285;50.894;5.462;2022-09-09T10:48:31;17.00;1.00
14401;DHT22;7285;50.894;5.462;2022-09-09T10:51:07;16.90;1.00
14401;DHT22;7285;50.894;5.462;2022-09-09T10:53:46;16.80;1.00
14401;DHT22;7285;50.894;5.462;2022-09-09T10:56:20;16.70;1.00
14401;DHT22;7285;50.894;5.462;2022-09-09T10:58:51;16.70;1.00
14401;DHT22;7285;50.894;5.462;2022-09-09T11:01:25;16.80;1.00
14401;DHT22;7285;50.894;5.462;2022-09-09T11:03:56;17.00;23.30
14401;DHT22;7285;50.894;5.462;2022-09-09T11:06:30;17.20;99.90
14401;DHT22;7285;50.894;5.462;2022-09-09T11:08:58;17.40;4.80
14401;DHT22;7285;50.894;5.462;2022-09-09T11:11:32;17.50;1.00
14401;DHT22;7285;50.894;5.462;2022-09-09T11:14:05;17.70;1.00
14401;DHT22;7285;50.894;5.462;2022-09-09T11:16:40;17.80;1.00
14401;DHT22;7285;50.894;5.462;2022-09-09T11:19:14;17.90;1.00
14401;DHT22;7285;50.894;5.462;2022-09-09T11:21:45;18.10;99.90
14401;DHT22;7285;50.894;5.462;2022-09-09T11:24:17;18.20;99.90
14401;DHT22;7285;50.894;5.462;2022-09-09T11:26:47;18.30;99.90
14401;DHT22;7285;50.894;5.462;2022-09-09T11:29:33;18.40;99.90
14401;DHT22;7285;50.894;5.462;2022-09-09T11:32:18;18.50;99.90
14401;DHT22;7285;50.894;5.462;2022-09-09T11:34:54;18.60;1.00
14401;DHT22;7285;50.894;5.462;2022-09-09T11:37:50;18.60;35.50
14401;DHT22;7285;50.894;5.462;2022-09-09T11:40:23;18.50;1.00
14401;DHT22;7285;50.894;5.462;2022-09-09T11:43:02;18.40;1.00
14401;DHT22;7285;50.894;5.462;2022-09-09T11:45:32;18.40;1.00
14401;DHT22;7285;50.894;5.462;2022-09-09T11:48:04;18.20;1.00
14401;DHT22;7285;50.894;5.462;2022-09-09T11:50:36;18.20;1.00
14401;DHT22;7285;50.894;5.462;2022-09-09T11:55:59;18.20;1.00
14401;DHT22;7285;50.894;5.462;2022-09-09T11:58:28;18.40;1.00
14401;DHT22;7285;50.894;5.462;2022-09-09T12:00:58;18.40;1.00
14401;DHT22;7285;50.894;5.462;2022-09-09T12:03:42;18.50;1.00
14401;DHT22;7285;50.894;5.462;2022-09-09T12:06:15;18.40;1.00
14401;DHT22;7285;50.894;5.462;2022-09-09T12:08:46;18.50;1.00
14401;DHT22;7285;50.894;5.462;2022-09-09T12:11:24;18.30;1.00
14401;DHT22;7285;50.894;5.462;2022-09-09T12:13:56;18.20;1.00
14401;DHT22;7285;50.894;5.462;2022-09-09T12:16:31;18.20;1.00
14401;DHT22;7285;50.894;5.462;2022-09-09T12:19:22;18.00;1.00
14401;DHT22;7285;50.894;5.462;2022-09-09T12:22:00;17.80;1.00
14401;DHT22;7285;50.894;5.462;2022-09-09T12:24:33;17.70;51.30
14401;DHT22;7285;50.894;5.462;2022-09-09T12:27:09;17.50;99.90
14401;DHT22;7285;50.894;5.462;2022-09-09T12:29:45;16.80;1.00
14401;DHT22;7285;50.894;5.462;2022-09-09T12:32:22;16.40;99.90
14401;DHT22;7285;50.894;5.462;2022-09-09T12:34:54;16.10;1.00
14401;DHT22;7285;50.894;5.462;2022-09-09T12:37:28;15.80;1.00
14401;DHT22;7285;50.894;5.462;2022-09-09T12:39:57;15.60;99.90
14401;DHT22;7285;50.894;5.462;2022-09-09T12:42:26;15.50;1.00
14401;DHT22;7285;50.894;5.462;2022-09-09T12:44:55;15.30;1.00
14401;DHT22;7285;50.894;5.462;2022-09-09T12:47:31;15.30;99.90
14401;DHT22;7285;50.894;5.462;2022-09-09T12:50:01;15.60;1.00
14401;DHT22;7285;50.894;5.462;2022-09-09T12:52:31;15.90;1.00
14401;DHT22;7285;50.894;5.462;2022-09-09T12:55:01;16.20;99.90
14401;DHT22;7285;50.894;5.462;2022-09-09T12:57:33;16.40;79.70
14401;DHT22;7285;50.894;5.462;2022-09-09T13:00:13;16.50;99.90
14401;DHT22;7285;50.894;5.462;2022-09-09T13:02:50;16.60;99.90
14401;DHT22;7285;50.894;5.462;2022-09-09T13:05:21;16.70;1.00
14401;DHT22;7285;50.894;5.462;2022-09-09T13:07:48;16.90;24.30
14401;DHT22;7285;50.894;5.462;2022-09-09T13:10:22;17.00;1.00
14401;DHT22;7285;50.894;5.462;2022-09-09T13:12:52;17.30;1.00
14401;DHT22;7285;50.894;5.462;2022-09-09T13:15:21;17.50;1.00
14401;DHT22;7285;50.894;5.462;2022-09-09T13:17:55;17.90;1.00
14401;DHT22;7285;50.894;5.462;2022-09-09T13:20:24;18.00;99.90
14401;DHT22;7285;50.894;5.462;2022-09-09T13:22:53;18.20;1.00
14401;DHT22;7285;50.894;5.462;2022-09-09T13:25:23;18.30;1.00
14401;DHT22;7285;50.894;5.462;2022-09-09T13:28:04;18.50;19.90
14401;DHT22;7285;50.894;5.462;2022-09-09T13:30:33;18.60;92.50
14401;DHT22;7285;50.894;5.462;2022-09-09T13:33:04;18.60;1.00
14401;DHT22;7285;50.894;5.462;2022-09-09T13:35:32;18.90;99.90
14401;DHT22;7285;50.894;5.462;2022-09-09T13:38:07;19.10;48.20
14401;DHT22;7285;50.894;5.462;2022-09-09T13:40:35;19.20;1.00
14401;DHT22;7285;50.894;5.462;2022-09-09T13:43:02;19.40;1.00
14401;DHT22;7285;50.894;5.462;2022-09-09T13:45:31;19.30;99.90
14401;DHT22;7285;50.894;5.462;2022-09-09T13:48:09;19.30;1.00
14401;DHT22;7285;50.894;5.462;2022-09-09T13:50:37;19.30;1.00
14401;DHT22;7285;50.894;5.462;2022-09-09T13:53:07;19.60;99.90
14401;DHT22;7285;50.894;5.462;2022-09-09T13:55:36;19.50;1.00
14401;DHT22;7285;50.894;5.462;2022-09-09T13:58:04;19.70;99.90
14401;DHT22;7285;50.894;5.462;2022-09-09T14:00:33;20.10;1.00
14401;DHT22;7285;50.894;5.462;2022-09-09T14:03:01;20.50;1.00
14401;DHT22;7285;50.894;5.462;2022-09-09T14:05:29;20.10;58.20
14401;DHT22;7285;50.894;5.462;2022-09-09T14:07:58;19.90;99.90
14401;DHT22;7285;50.894;5.462;2022-09-09T14:10:26;20.00;99.90
14401;DHT22;7285;50.894;5.462;2022-09-09T14:12:53;19.90;1.00
14401;DHT22;7285;50.894;5.462;2022-09-09T14:15:19;20.00;99.90
14401;DHT22;7285;50.894;5.462;2022-09-09T14:17:47;19.90;99.90
14401;DHT22;7285;50.894;5.462;2022-09-09T14:20:14;19.80;51.40
14401;DHT22;7285;50.894;5.462;2022-09-09T14:22:43;19.80;99.90
14401;DHT22;7285;50.894;5.462;2022-09-09T14:25:12;19.90;3.50
14401;DHT22;7285;50.894;5.462;2022-09-09T14:27:39;20.00;99.90
14401;DHT22;7285;50.894;5.462;2022-09-09T14:30:08;20.00;1.00
14401;DHT22;7285;50.894;5.462;2022-09-09T14:32:36;19.90;1.00
14401;DHT22;7285;50.894;5.462;2022-09-09T14:35:03;19.80;1.00
14401;DHT22;7285;50.894;5.462;2022-09-09T14:37:30;19.60;1.00
14401;DHT22;7285;50.894;5.462;2022-09-09T14:39:57;19.60;1.00
14401;DHT22;7285;50.894;5.462;2022-09-09T14:42:26;19.60;1.00
14401;DHT22;7285;50.894;5.462;2022-09-09T14:44:54;19.90;1.00
14401;DHT22;7285;50.894;5.462;2022-09-09T14:47:21;20.20;1.00
14401;DHT22;7285;50.894;5.462;2022-09-09T14:49:48;20.40;1.00
14401;DHT22;7285;50.894;5.462;2022-09-09T14:52:16;20.70;1.00
14401;DHT22;7285;50.894;5.462;2022-09-09T14:54:43;20.70;1.00
14401;DHT22;7285;50.894;5.462;2022-09-09T14:57:10;20.40;1.00
14401;DHT22;7285;50.894;5.462;2022-09-09T14:59:38;20.30;1.00
14401;DHT22;7285;50.894;5.462;2022-09-09T15:02:07;20.10;1.00
14401;DHT22;7285;50.894;5.462;2022-09-09T15:04:35;20.50;1.00
14401;DHT22;7285;50.894;5.462;2022-09-09T15:07:02;20.90;1.00
14401;DHT22;7285;50.894;5.462;2022-09-09T15:09:29;21.00;1.00
14401;DHT22;7285;50.894;5.462;2022-09-09T15:11:55;20.80;1.00
14401;DHT22;7285;50.894;5.462;2022-09-09T15:14:22;20.80;1.00
14401;DHT22;7285;50.894;5.462;2022-09-09T15:16:51;20.50;1.00
14401;DHT22;7285;50.894;5.462;2022-09-09T15:19:18;20.20;1.00
14401;DHT22;7285;50.894;5.462;2022-09-09T15:21:45;20.10;1.00
14401;DHT22;7285;50.894;5.462;2022-09-09T15:24:13;20.20;1.00
14401;DHT22;7285;50.894;5.462;2022-09-09T15:26:40;20.70;1.00
14401;DHT22;7285;50.894;5.462;2022-09-09T15:29:07;21.50;1.00
14401;DHT22;7285;50.894;5.462;2022-09-09T15:31:34;21.90;1.00
14401;DHT22;7285;50.894;5.462;2022-09-09T15:34:04;21.30;1.00
14401;DHT22;7285;50.894;5.462;2022-09-09T15:36:33;20.80;1.00
14401;DHT22;7285;50.894;5.462;2022-09-09T15:39:01;20.50;1.00
14401;DHT22;7285;50.894;5.462;2022-09-09T15:41:29;20.20;1.00
14401;DHT22;7285;50.894;5.462;2022-09-09T15:43:57;20.20;1.00
14401;DHT22;7285;50.894;5.462;2022-09-09T15:46:30;20.00;1.00
14401;DHT22;7285;50.894;5.462;2022-09-09T15:49:06;20.00;1.00
14401;DHT22;7285;50.894;5.462;2022-09-09T15:51:34;19.90;1.00
14401;DHT22;7285;50.894;5.462;2022-09-09T15:54:03;19.80;1.00
14401;DHT22;7285;50.894;5.462;2022-09-09T15:56:31;20.00;1.00
14401;DHT22;7285;50.894;5.462;2022-09-09T15:58:59;20.10;1.00
14401;DHT22;7285;50.894;5.462;2022-09-09T16:01:27;20.10;1.00
14401;DHT22;7285;50.894;5.462;2022-09-09T16:03:54;20.60;1.00
14401;DHT22;7285;50.894;5.462;2022-09-09T16:06:24;20.30;1.00
14401;DHT22;7285;50.894;5.462;2022-09-09T16:08:53;20.20;1.00
14401;DHT22;7285;50.894;5.462;2022-09-09T16:11:22;20.10;1.00
14401;DHT22;7285;50.894;5.462;2022-09-09T16:13:51;20.00;1.00
14401;DHT22;7285;50.894;5.462;2022-09-09T16:16:19;19.80;1.00
14401;DHT22;7285;50.894;5.462;2022-09-09T16:18:48;19.60;1.00
14401;DHT22;7285;50.894;5.462;2022-09-09T16:21:19;19.50;1.00
14401;DHT22;7285;50.894;5.462;2022-09-09T16:23:49;19.20;1.00
14401;DHT22;7285;50.894;5.462;2022-09-09T16:26:17;18.80;1.00